Terminal Aerodrome Forecast
Issued by NWS

Home | Current Version | Previous Version | Text Only | Print | Product List | Glossary Off
Versions: 1 2 3 4 5 6 7 8 9 10 11 12

477
FTUS43 KICT 241730
TAFRSL
TAF
KRSL 241730Z 2418/2518 17010KT P6SM -RA BKN060
     FM250000 15009KT P6SM VCSH OVC050
     FM251200 35010KT P6SM -RA OVC050=

USA.gov is the U.S. government's official web portal to all federal, state and local government web resources and services.